sensor_id;sensor_type;location;lat;lon;timestamp;P1;durP1;ratioP1;P2;durP2;ratioP2
56517;SDS011;42419;48.760;2.322;2023-03-01T00:01:08;3.90;;;2.60;;
56517;SDS011;42419;48.760;2.322;2023-03-01T00:03:38;2.60;;;2.40;;
56517;SDS011;42419;48.760;2.322;2023-03-01T00:06:04;3.70;;;3.00;;
56517;SDS011;42419;48.760;2.322;2023-03-01T00:08:30;3.37;;;2.23;;
56517;SDS011;42419;48.760;2.322;2023-03-01T00:11:01;3.13;;;2.63;;
56517;SDS011;42419;48.760;2.322;2023-03-01T00:13:26;3.00;;;2.70;;
56517;SDS011;42419;48.760;2.322;2023-03-01T00:15:52;3.63;;;2.87;;
56517;SDS011;42419;48.760;2.322;2023-03-01T00:18:17;2.80;;;2.50;;
56517;SDS011;42419;48.760;2.322;2023-03-01T00:20:48;2.90;;;2.60;;
56517;SDS011;42419;48.760;2.322;2023-03-01T00:23:15;3.00;;;2.70;;
56517;SDS011;42419;48.760;2.322;2023-03-01T00:25:41;3.70;;;3.17;;
56517;SDS011;42419;48.760;2.322;2023-03-01T00:28:07;5.30;;;3.33;;
56517;SDS011;42419;48.760;2.322;2023-03-01T00:30:33;2.70;;;2.30;;
56517;SDS011;42419;48.760;2.322;2023-03-01T00:32:58;3.27;;;2.70;;
56517;SDS011;42419;48.760;2.322;2023-03-01T00:35:23;2.83;;;2.50;;
56517;SDS011;42419;48.760;2.322;2023-03-01T00:37:48;4.03;;;2.80;;
56517;SDS011;42419;48.760;2.322;2023-03-01T00:40:22;3.90;;;2.60;;
56517;SDS011;42419;48.760;2.322;2023-03-01T00:42:49;3.90;;;2.80;;
56517;SDS011;42419;48.760;2.322;2023-03-01T00:45:14;2.90;;;2.70;;
56517;SDS011;42419;48.760;2.322;2023-03-01T00:47:39;3.27;;;2.90;;
56517;SDS011;42419;48.760;2.322;2023-03-01T00:50:05;3.53;;;2.70;;
56517;SDS011;42419;48.760;2.322;2023-03-01T00:52:31;4.30;;;2.87;;
56517;SDS011;42419;48.760;2.322;2023-03-01T00:54:56;2.90;;;2.70;;
56517;SDS011;42419;48.760;2.322;2023-03-01T00:57:22;3.00;;;2.70;;
56517;SDS011;42419;48.760;2.322;2023-03-01T00:59:48;3.33;;;3.03;;
56517;SDS011;42419;48.760;2.322;2023-03-01T01:02:14;3.00;;;2.43;;
56517;SDS011;42419;48.760;2.322;2023-03-01T01:04:40;3.10;;;2.80;;
56517;SDS011;42419;48.760;2.322;2023-03-01T01:07:07;3.30;;;3.00;;
56517;SDS011;42419;48.760;2.322;2023-03-01T01:09:33;4.83;;;3.10;;
56517;SDS011;42419;48.760;2.322;2023-03-01T01:12:01;6.03;;;2.87;;
56517;SDS011;42419;48.760;2.322;2023-03-01T01:14:26;3.20;;;2.70;;
56517;SDS011;42419;48.760;2.322;2023-03-01T01:16:51;3.20;;;2.90;;
56517;SDS011;42419;48.760;2.322;2023-03-01T01:19:17;2.90;;;2.70;;
56517;SDS011;42419;48.760;2.322;2023-03-01T01:21:42;3.03;;;2.73;;
56517;SDS011;42419;48.760;2.322;2023-03-01T01:24:08;2.60;;;2.40;;
56517;SDS011;42419;48.760;2.322;2023-03-01T01:26:34;3.13;;;2.83;;
56517;SDS011;42419;48.760;2.322;2023-03-01T01:29:02;3.53;;;3.23;;
56517;SDS011;42419;48.760;2.322;2023-03-01T01:31:29;3.13;;;2.93;;
56517;SDS011;42419;48.760;2.322;2023-03-01T01:33:56;2.80;;;2.50;;
56517;SDS011;42419;48.760;2.322;2023-03-01T01:36:22;2.50;;;2.30;;
56517;SDS011;42419;48.760;2.322;2023-03-01T01:38:47;3.00;;;2.70;;
56517;SDS011;42419;48.760;2.322;2023-03-01T01:41:13;3.10;;;2.90;;
56517;SDS011;42419;48.760;2.322;2023-03-01T01:43:43;2.43;;;2.23;;
56517;SDS011;42419;48.760;2.322;2023-03-01T01:46:21;3.40;;;2.60;;
56517;SDS011;42419;48.760;2.322;2023-03-01T01:48:59;3.00;;;2.53;;
56517;SDS011;42419;48.760;2.322;2023-03-01T01:51:29;2.70;;;2.50;;
56517;SDS011;42419;48.760;2.322;2023-03-01T01:54:03;3.60;;;2.67;;
56517;SDS011;42419;48.760;2.322;2023-03-01T01:56:33;2.70;;;2.50;;
56517;SDS011;42419;48.760;2.322;2023-03-01T01:59:00;3.57;;;2.63;;
56517;SDS011;42419;48.760;2.322;2023-03-01T02:01:26;3.03;;;2.83;;
56517;SDS011;42419;48.760;2.322;2023-03-01T02:03:52;3.20;;;2.90;;
56517;SDS011;42419;48.760;2.322;2023-03-01T02:06:31;2.70;;;2.50;;
56517;SDS011;42419;48.760;2.322;2023-03-01T02:09:05;3.53;;;2.80;;
56517;SDS011;42419;48.760;2.322;2023-03-01T02:11:33;2.70;;;2.50;;
56517;SDS011;42419;48.760;2.322;2023-03-01T02:13:59;2.73;;;2.50;;
56517;SDS011;42419;48.760;2.322;2023-03-01T02:16:24;3.37;;;3.07;;
56517;SDS011;42419;48.760;2.322;2023-03-01T02:18:51;3.50;;;3.20;;
56517;SDS011;42419;48.760;2.322;2023-03-01T02:21:24;2.60;;;2.40;;
56517;SDS011;42419;48.760;2.322;2023-03-01T02:23:52;2.90;;;2.70;;
56517;SDS011;42419;48.760;2.322;2023-03-01T02:26:22;3.10;;;2.80;;
56517;SDS011;42419;48.760;2.322;2023-03-01T02:28:53;3.10;;;2.60;;
56517;SDS011;42419;48.760;2.322;2023-03-01T02:31:19;2.67;;;2.47;;
56517;SDS011;42419;48.760;2.322;2023-03-01T02:34:05;3.80;;;2.90;;
56517;SDS011;42419;48.760;2.322;2023-03-01T02:36:36;2.87;;;2.67;;
56517;SDS011;42419;48.760;2.322;2023-03-01T02:39:06;2.70;;;2.50;;
56517;SDS011;42419;48.760;2.322;2023-03-01T02:41:39;2.87;;;2.50;;
56517;SDS011;42419;48.760;2.322;2023-03-01T02:44:07;3.00;;;2.70;;
56517;SDS011;42419;48.760;2.322;2023-03-01T02:46:33;3.10;;;2.90;;
56517;SDS011;42419;48.760;2.322;2023-03-01T02:48:58;3.13;;;2.60;;
56517;SDS011;42419;48.760;2.322;2023-03-01T02:51:32;3.40;;;2.60;;
56517;SDS011;42419;48.760;2.322;2023-03-01T02:54:18;2.87;;;2.63;;
56517;SDS011;42419;48.760;2.322;2023-03-01T02:56:50;3.13;;;2.87;;
56517;SDS011;42419;48.760;2.322;2023-03-01T02:59:18;3.50;;;3.03;;
56517;SDS011;42419;48.760;2.322;2023-03-01T03:01:45;2.70;;;2.50;;
56517;SDS011;42419;48.760;2.322;2023-03-01T03:04:13;3.40;;;3.10;;
56517;SDS011;42419;48.760;2.322;2023-03-01T03:06:46;3.30;;;3.00;;
56517;SDS011;42419;48.760;2.322;2023-03-01T03:09:13;2.60;;;2.40;;
56517;SDS011;42419;48.760;2.322;2023-03-01T03:11:39;3.13;;;2.73;;
56517;SDS011;42419;48.760;2.322;2023-03-01T03:14:06;2.70;;;2.50;;
56517;SDS011;42419;48.760;2.322;2023-03-01T03:16:38;2.53;;;2.33;;
56517;SDS011;42419;48.760;2.322;2023-03-01T03:19:05;3.00;;;2.70;;
56517;SDS011;42419;48.760;2.322;2023-03-01T03:21:33;2.63;;;2.43;;
56517;SDS011;42419;48.760;2.322;2023-03-01T03:23:58;2.83;;;2.50;;
56517;SDS011;42419;48.760;2.322;2023-03-01T03:26:24;3.07;;;2.77;;
56517;SDS011;42419;48.760;2.322;2023-03-01T03:28:49;2.90;;;2.70;;
56517;SDS011;42419;48.760;2.322;2023-03-01T03:31:14;2.57;;;2.33;;
56517;SDS011;42419;48.760;2.322;2023-03-01T03:33:40;2.60;;;2.40;;
56517;SDS011;42419;48.760;2.322;2023-03-01T03:36:05;2.63;;;2.43;;
56517;SDS011;42419;48.760;2.322;2023-03-01T03:38:31;2.70;;;2.50;;
56517;SDS011;42419;48.760;2.322;2023-03-01T03:41:00;2.67;;;2.40;;
56517;SDS011;42419;48.760;2.322;2023-03-01T03:43:28;2.57;;;2.37;;
56517;SDS011;42419;48.760;2.322;2023-03-01T03:45:56;2.90;;;2.70;;
56517;SDS011;42419;48.760;2.322;2023-03-01T03:48:24;2.77;;;2.57;;
56517;SDS011;42419;48.760;2.322;2023-03-01T03:50:51;2.70;;;2.50;;
56517;SDS011;42419;48.760;2.322;2023-03-01T03:53:18;2.63;;;2.43;;
56517;SDS011;42419;48.760;2.322;2023-03-01T03:55:44;3.30;;;2.90;;
56517;SDS011;42419;48.760;2.322;2023-03-01T03:58:10;3.83;;;2.80;;
56517;SDS011;42419;48.760;2.322;2023-03-01T04:00:40;5.27;;;2.70;;
56517;SDS011;42419;48.760;2.322;2023-03-01T04:03:07;2.70;;;2.50;;
56517;SDS011;42419;48.760;2.322;2023-03-01T04:05:33;5.20;;;2.53;;
56517;SDS011;42419;48.760;2.322;2023-03-01T04:07:59;3.20;;;2.87;;
56517;SDS011;42419;48.760;2.322;2023-03-01T04:10:28;3.27;;;2.97;;
56517;SDS011;42419;48.760;2.322;2023-03-01T04:12:54;2.73;;;2.53;;
56517;SDS011;42419;48.760;2.322;2023-03-01T04:15:23;2.83;;;2.63;;
56517;SDS011;42419;48.760;2.322;2023-03-01T04:17:49;2.63;;;2.43;;
56517;SDS011;42419;48.760;2.322;2023-03-01T04:20:17;2.70;;;2.50;;
56517;SDS011;42419;48.760;2.322;2023-03-01T04:22:52;2.93;;;2.73;;
56517;SDS011;42419;48.760;2.322;2023-03-01T04:25:22;2.90;;;2.70;;
56517;SDS011;42419;48.760;2.322;2023-03-01T04:27:48;4.00;;;3.43;;
56517;SDS011;42419;48.760;2.322;2023-03-01T04:30:13;3.00;;;2.70;;
56517;SDS011;42419;48.760;2.322;2023-03-01T04:32:39;3.13;;;2.93;;
56517;SDS011;42419;48.760;2.322;2023-03-01T04:35:04;4.23;;;3.10;;
56517;SDS011;42419;48.760;2.322;2023-03-01T04:37:30;3.23;;;2.60;;
56517;SDS011;42419;48.760;2.322;2023-03-01T04:39:55;2.90;;;2.60;;
56517;SDS011;42419;48.760;2.322;2023-03-01T04:42:21;3.20;;;2.37;;
56517;SDS011;42419;48.760;2.322;2023-03-01T04:44:46;2.77;;;2.57;;
56517;SDS011;42419;48.760;2.322;2023-03-01T04:47:11;3.17;;;2.60;;
56517;SDS011;42419;48.760;2.322;2023-03-01T04:49:37;3.50;;;3.20;;
56517;SDS011;42419;48.760;2.322;2023-03-01T04:52:03;3.43;;;3.13;;
56517;SDS011;42419;48.760;2.322;2023-03-01T04:54:30;2.93;;;2.70;;
56517;SDS011;42419;48.760;2.322;2023-03-01T04:56:57;3.30;;;2.83;;
56517;SDS011;42419;48.760;2.322;2023-03-01T04:59:22;2.93;;;2.63;;
56517;SDS011;42419;48.760;2.322;2023-03-01T05:01:49;3.60;;;2.77;;
56517;SDS011;42419;48.760;2.322;2023-03-01T05:04:14;2.93;;;2.70;;
56517;SDS011;42419;48.760;2.322;2023-03-01T05:06:40;4.50;;;3.00;;
56517;SDS011;42419;48.760;2.322;2023-03-01T05:09:05;3.97;;;2.80;;
56517;SDS011;42419;48.760;2.322;2023-03-01T05:11:31;4.27;;;3.03;;
56517;SDS011;42419;48.760;2.322;2023-03-01T05:14:00;2.87;;;2.57;;
56517;SDS011;42419;48.760;2.322;2023-03-01T05:16:26;3.73;;;2.80;;
56517;SDS011;42419;48.760;2.322;2023-03-01T05:18:51;3.00;;;2.80;;
56517;SDS011;42419;48.760;2.322;2023-03-01T05:21:17;2.87;;;2.57;;
56517;SDS011;42419;48.760;2.322;2023-03-01T05:23:42;3.40;;;3.10;;
56517;SDS011;42419;48.760;2.322;2023-03-01T05:26:08;3.40;;;3.03;;
56517;SDS011;42419;48.760;2.322;2023-03-01T05:28:34;3.47;;;2.63;;
56517;SDS011;42419;48.760;2.322;2023-03-01T05:30:59;3.17;;;2.97;;
56517;SDS011;42419;48.760;2.322;2023-03-01T05:33:25;6.23;;;3.13;;
56517;SDS011;42419;48.760;2.322;2023-03-01T05:35:51;3.30;;;3.00;;
56517;SDS011;42419;48.760;2.322;2023-03-01T05:38:18;2.80;;;2.60;;
56517;SDS011;42419;48.760;2.322;2023-03-01T05:40:45;3.37;;;3.07;;
56517;SDS011;42419;48.760;2.322;2023-03-01T05:43:13;3.23;;;2.83;;
56517;SDS011;42419;48.760;2.322;2023-03-01T05:45:39;2.93;;;2.70;;
56517;SDS011;42419;48.760;2.322;2023-03-01T05:48:06;2.77;;;2.57;;
56517;SDS011;42419;48.760;2.322;2023-03-01T05:50:40;3.23;;;3.03;;
56517;SDS011;42419;48.760;2.322;2023-03-01T05:53:09;3.47;;;2.43;;
56517;SDS011;42419;48.760;2.322;2023-03-01T05:55:39;3.17;;;2.93;;
56517;SDS011;42419;48.760;2.322;2023-03-01T05:58:10;3.00;;;2.80;;
56517;SDS011;42419;48.760;2.322;2023-03-01T06:00:38;3.50;;;3.20;;
56517;SDS011;42419;48.760;2.322;2023-03-01T06:03:04;3.33;;;3.03;;
56517;SDS011;42419;48.760;2.322;2023-03-01T06:05:29;3.00;;;2.80;;
56517;SDS011;42419;48.760;2.322;2023-03-01T06:07:55;2.87;;;2.67;;
56517;SDS011;42419;48.760;2.322;2023-03-01T06:10:26;4.97;;;2.50;;
56517;SDS011;42419;48.760;2.322;2023-03-01T06:12:51;3.73;;;2.90;;
56517;SDS011;42419;48.760;2.322;2023-03-01T06:15:17;3.60;;;3.17;;
56517;SDS011;42419;48.760;2.322;2023-03-01T06:17:43;3.20;;;2.90;;
56517;SDS011;42419;48.760;2.322;2023-03-01T06:20:20;3.00;;;2.77;;
56517;SDS011;42419;48.760;2.322;2023-03-01T06:22:47;2.80;;;2.60;;
56517;SDS011;42419;48.760;2.322;2023-03-01T06:25:15;3.10;;;2.80;;
56517;SDS011;42419;48.760;2.322;2023-03-01T06:27:42;3.53;;;3.00;;
56517;SDS011;42419;48.760;2.322;2023-03-01T06:30:08;3.43;;;3.13;;
56517;SDS011;42419;48.760;2.322;2023-03-01T06:32:36;3.03;;;2.70;;
56517;SDS011;42419;48.760;2.322;2023-03-01T06:35:02;3.90;;;2.80;;
56517;SDS011;42419;48.760;2.322;2023-03-01T06:37:28;3.70;;;2.90;;
56517;SDS011;42419;48.760;2.322;2023-03-01T06:39:54;3.20;;;2.90;;
56517;SDS011;42419;48.760;2.322;2023-03-01T06:42:19;3.83;;;2.83;;
56517;SDS011;42419;48.760;2.322;2023-03-01T06:44:44;3.30;;;3.00;;
56517;SDS011;42419;48.760;2.322;2023-03-01T06:47:10;3.33;;;3.03;;
56517;SDS011;42419;48.760;2.322;2023-03-01T06:49:36;3.27;;;2.97;;
56517;SDS011;42419;48.760;2.322;2023-03-01T06:52:01;3.60;;;3.30;;
56517;SDS011;42419;48.760;2.322;2023-03-01T06:54:27;3.63;;;2.90;;
56517;SDS011;42419;48.760;2.322;2023-03-01T06:56:52;3.03;;;2.73;;
56517;SDS011;42419;48.760;2.322;2023-03-01T06:59:17;3.80;;;3.30;;
56517;SDS011;42419;48.760;2.322;2023-03-01T07:01:43;4.23;;;3.10;;
56517;SDS011;42419;48.760;2.322;2023-03-01T07:04:09;2.93;;;2.70;;
56517;SDS011;42419;48.760;2.322;2023-03-01T07:06:35;4.10;;;3.30;;
56517;SDS011;42419;48.760;2.322;2023-03-01T07:09:00;4.43;;;3.60;;
56517;SDS011;42419;48.760;2.322;2023-03-01T07:11:25;3.80;;;2.83;;
56517;SDS011;42419;48.760;2.322;2023-03-01T07:13:51;5.00;;;3.27;;
56517;SDS011;42419;48.760;2.322;2023-03-01T07:16:16;3.77;;;3.47;;
56517;SDS011;42419;48.760;2.322;2023-03-01T07:18:41;4.07;;;3.00;;
56517;SDS011;42419;48.760;2.322;2023-03-01T07:21:07;2.90;;;2.70;;
56517;SDS011;42419;48.760;2.322;2023-03-01T07:23:34;4.97;;;3.30;;
56517;SDS011;42419;48.760;2.322;2023-03-01T07:26:00;4.30;;;3.57;;
56517;SDS011;42419;48.760;2.322;2023-03-01T07:28:25;3.27;;;2.97;;
56517;SDS011;42419;48.760;2.322;2023-03-01T07:30:51;3.20;;;2.90;;
56517;SDS011;42419;48.760;2.322;2023-03-01T07:33:16;6.53;;;3.40;;
56517;SDS011;42419;48.760;2.322;2023-03-01T07:35:42;5.83;;;3.50;;
56517;SDS011;42419;48.760;2.322;2023-03-01T07:38:07;3.27;;;2.90;;
56517;SDS011;42419;48.760;2.322;2023-03-01T07:40:33;3.10;;;2.80;;
56517;SDS011;42419;48.760;2.322;2023-03-01T07:43:01;5.30;;;4.00;;
56517;SDS011;42419;48.760;2.322;2023-03-01T07:45:27;3.27;;;2.97;;
56517;SDS011;42419;48.760;2.322;2023-03-01T07:47:53;4.03;;;3.60;;
56517;SDS011;42419;48.760;2.322;2023-03-01T07:50:19;3.57;;;3.13;;
56517;SDS011;42419;48.760;2.322;2023-03-01T07:52:46;3.43;;;3.13;;
56517;SDS011;42419;48.760;2.322;2023-03-01T07:55:13;3.90;;;3.10;;
56517;SDS011;42419;48.760;2.322;2023-03-01T07:57:38;3.40;;;3.10;;
56517;SDS011;42419;48.760;2.322;2023-03-01T08:00:04;3.70;;;3.40;;
56517;SDS011;42419;48.760;2.322;2023-03-01T08:02:30;3.40;;;3.10;;
56517;SDS011;42419;48.760;2.322;2023-03-01T08:04:56;4.40;;;3.60;;
56517;SDS011;42419;48.760;2.322;2023-03-01T08:07:21;3.57;;;3.27;;
56517;SDS011;42419;48.760;2.322;2023-03-01T08:09:46;4.70;;;3.87;;
56517;SDS011;42419;48.760;2.322;2023-03-01T08:12:12;4.43;;;4.00;;
56517;SDS011;42419;48.760;2.322;2023-03-01T08:14:37;4.43;;;3.60;;
56517;SDS011;42419;48.760;2.322;2023-03-01T08:17:02;7.53;;;3.80;;
56517;SDS011;42419;48.760;2.322;2023-03-01T08:19:28;3.90;;;3.60;;
56517;SDS011;42419;48.760;2.322;2023-03-01T08:21:54;4.00;;;3.67;;
56517;SDS011;42419;48.760;2.322;2023-03-01T08:24:19;3.77;;;3.40;;
56517;SDS011;42419;48.760;2.322;2023-03-01T08:26:45;4.63;;;3.40;;
56517;SDS011;42419;48.760;2.322;2023-03-01T08:29:10;3.77;;;3.47;;
56517;SDS011;42419;48.760;2.322;2023-03-01T08:31:36;4.30;;;3.90;;
56517;SDS011;42419;48.760;2.322;2023-03-01T08:34:05;3.87;;;3.57;;
56517;SDS011;42419;48.760;2.322;2023-03-01T08:36:33;4.33;;;3.83;;
56517;SDS011;42419;48.760;2.322;2023-03-01T08:39:05;4.37;;;3.97;;
56517;SDS011;42419;48.760;2.322;2023-03-01T08:41:31;4.27;;;3.87;;
56517;SDS011;42419;48.760;2.322;2023-03-01T08:43:57;3.60;;;3.30;;
56517;SDS011;42419;48.760;2.322;2023-03-01T08:46:26;4.17;;;3.80;;
56517;SDS011;42419;48.760;2.322;2023-03-01T08:48:55;4.60;;;3.73;;
56517;SDS011;42419;48.760;2.322;2023-03-01T08:51:20;3.67;;;3.27;;
56517;SDS011;42419;48.760;2.322;2023-03-01T08:53:47;3.93;;;3.60;;
56517;SDS011;42419;48.760;2.322;2023-03-01T08:56:12;4.00;;;3.60;;
56517;SDS011;42419;48.760;2.322;2023-03-01T08:58:37;4.13;;;3.60;;
56517;SDS011;42419;48.760;2.322;2023-03-01T09:01:08;5.60;;;3.57;;
56517;SDS011;42419;48.760;2.322;2023-03-01T09:03:35;4.17;;;3.80;;
56517;SDS011;42419;48.760;2.322;2023-03-01T09:06:01;4.10;;;3.60;;
56517;SDS011;42419;48.760;2.322;2023-03-01T09:08:27;9.80;;;3.57;;
56517;SDS011;42419;48.760;2.322;2023-03-01T09:10:53;4.83;;;4.27;;
56517;SDS011;42419;48.760;2.322;2023-03-01T09:13:18;7.00;;;3.37;;
56517;SDS011;42419;48.760;2.322;2023-03-01T09:15:43;3.67;;;3.37;;
56517;SDS011;42419;48.760;2.322;2023-03-01T09:18:09;5.50;;;4.07;;
56517;SDS011;42419;48.760;2.322;2023-03-01T09:20:34;4.03;;;3.67;;
56517;SDS011;42419;48.760;2.322;2023-03-01T09:22:59;4.53;;;3.97;;
56517;SDS011;42419;48.760;2.322;2023-03-01T09:25:25;3.80;;;3.50;;
56517;SDS011;42419;48.760;2.322;2023-03-01T09:27:54;3.90;;;3.60;;
56517;SDS011;42419;48.760;2.322;2023-03-01T09:30:20;3.73;;;3.40;;
56517;SDS011;42419;48.760;2.322;2023-03-01T09:32:46;3.80;;;3.50;;
56517;SDS011;42419;48.760;2.322;2023-03-01T09:35:11;4.13;;;3.40;;
56517;SDS011;42419;48.760;2.322;2023-03-01T09:37:37;3.63;;;3.33;;
56517;SDS011;42419;48.760;2.322;2023-03-01T09:40:04;3.60;;;3.30;;
56517;SDS011;42419;48.760;2.322;2023-03-01T09:42:34;4.40;;;3.50;;
56517;SDS011;42419;48.760;2.322;2023-03-01T09:45:05;4.00;;;3.60;;
56517;SDS011;42419;48.760;2.322;2023-03-01T09:47:36;4.27;;;3.53;;
56517;SDS011;42419;48.760;2.322;2023-03-01T09:52:36;4.10;;;3.70;;
56517;SDS011;42419;48.760;2.322;2023-03-01T09:55:13;3.53;;;3.20;;
56517;SDS011;42419;48.760;2.322;2023-03-01T09:57:45;3.27;;;2.97;;
56517;SDS011;42419;48.760;2.322;2023-03-01T10:02:59;3.30;;;3.00;;
56517;SDS011;42419;48.760;2.322;2023-03-01T10:05:43;5.60;;;3.30;;
56517;SDS011;42419;48.760;2.322;2023-03-01T10:08:22;4.63;;;3.60;;
56517;SDS011;42419;48.760;2.322;2023-03-01T10:10:55;3.80;;;3.50;;
56517;SDS011;42419;48.760;2.322;2023-03-01T10:16:09;3.73;;;3.43;;
56517;SDS011;42419;48.760;2.322;2023-03-01T10:18:35;4.93;;;3.60;;
56517;SDS011;42419;48.760;2.322;2023-03-01T10:21:07;4.93;;;3.20;;
56517;SDS011;42419;48.760;2.322;2023-03-01T10:23:35;3.37;;;3.07;;
56517;SDS011;42419;48.760;2.322;2023-03-01T10:29:11;3.60;;;3.17;;
56517;SDS011;42419;48.760;2.322;2023-03-01T10:31:42;4.00;;;3.00;;
56517;SDS011;42419;48.760;2.322;2023-03-01T10:34:14;5.80;;;2.97;;
56517;SDS011;42419;48.760;2.322;2023-03-01T10:36:44;4.40;;;3.77;;
56517;SDS011;42419;48.760;2.322;2023-03-01T10:39:17;3.63;;;3.33;;
56517;SDS011;42419;48.760;2.322;2023-03-01T10:41:52;4.33;;;3.43;;
56517;SDS011;42419;48.760;2.322;2023-03-01T10:47:18;2.93;;;2.73;;
56517;SDS011;42419;48.760;2.322;2023-03-01T10:49:57;4.37;;;3.43;;
56517;SDS011;42419;48.760;2.322;2023-03-01T10:52:29;3.20;;;2.90;;
56517;SDS011;42419;48.760;2.322;2023-03-01T10:54:59;3.07;;;2.60;;
56517;SDS011;42419;48.760;2.322;2023-03-01T10:57:32;3.90;;;3.03;;
56517;SDS011;42419;48.760;2.322;2023-03-01T11:00:16;3.73;;;3.40;;
56517;SDS011;42419;48.760;2.322;2023-03-01T11:02:48;3.47;;;3.17;;
56517;SDS011;42419;48.760;2.322;2023-03-01T11:05:22;3.40;;;3.10;;
56517;SDS011;42419;48.760;2.322;2023-03-01T11:10:22;3.57;;;3.10;;
56517;SDS011;42419;48.760;2.322;2023-03-01T11:12:50;3.57;;;3.00;;
56517;SDS011;42419;48.760;2.322;2023-03-01T11:15:24;3.33;;;2.63;;
56517;SDS011;42419;48.760;2.322;2023-03-01T11:17:54;3.30;;;3.00;;
56517;SDS011;42419;48.760;2.322;2023-03-01T11:20:29;3.53;;;3.17;;
56517;SDS011;42419;48.760;2.322;2023-03-01T11:23:10;3.50;;;3.20;;
56517;SDS011;42419;48.760;2.322;2023-03-01T11:25:59;3.80;;;3.50;;
56517;SDS011;42419;48.760;2.322;2023-03-01T11:28:25;3.73;;;3.33;;
56517;SDS011;42419;48.760;2.322;2023-03-01T11:30:58;3.10;;;2.80;;
56517;SDS011;42419;48.760;2.322;2023-03-01T11:38:48;3.67;;;3.20;;
56517;SDS011;42419;48.760;2.322;2023-03-01T11:41:17;3.23;;;2.93;;
56517;SDS011;42419;48.760;2.322;2023-03-01T11:43:51;3.30;;;3.00;;
56517;SDS011;42419;48.760;2.322;2023-03-01T11:57:38;3.70;;;3.30;;
56517;SDS011;42419;48.760;2.322;2023-03-01T12:00:25;4.50;;;3.17;;
56517;SDS011;42419;48.760;2.322;2023-03-01T12:08:14;5.73;;;3.57;;
56517;SDS011;42419;48.760;2.322;2023-03-01T12:25:08;6.43;;;2.90;;
56517;SDS011;42419;48.760;2.322;2023-03-01T12:33:34;3.50;;;3.20;;
56517;SDS011;42419;48.760;2.322;2023-03-01T12:47:00;4.43;;;3.47;;
56517;SDS011;42419;48.760;2.322;2023-03-01T12:49:48;3.63;;;3.33;;
56517;SDS011;42419;48.760;2.322;2023-03-01T12:54:53;4.43;;;3.50;;
56517;SDS011;42419;48.760;2.322;2023-03-01T12:57:25;3.93;;;3.40;;
56517;SDS011;42419;48.760;2.322;2023-03-01T13:02:45;4.13;;;3.40;;
56517;SDS011;42419;48.760;2.322;2023-03-01T13:07:55;3.73;;;3.40;;
56517;SDS011;42419;48.760;2.322;2023-03-01T13:10:31;3.70;;;3.40;;
56517;SDS011;42419;48.760;2.322;2023-03-01T13:15:46;4.37;;;3.97;;
56517;SDS011;42419;48.760;2.322;2023-03-01T13:23:30;3.83;;;3.30;;
56517;SDS011;42419;48.760;2.322;2023-03-01T13:28:56;3.47;;;3.17;;
56517;SDS011;42419;48.760;2.322;2023-03-01T13:33:50;3.43;;;3.13;;
56517;SDS011;42419;48.760;2.322;2023-03-01T13:41:57;4.13;;;3.30;;
56517;SDS011;42419;48.760;2.322;2023-03-01T13:46:56;3.87;;;3.20;;
56517;SDS011;42419;48.760;2.322;2023-03-01T13:49:34;4.13;;;3.73;;
56517;SDS011;42419;48.760;2.322;2023-03-01T13:52:13;3.70;;;3.40;;
56517;SDS011;42419;48.760;2.322;2023-03-01T13:54:55;3.67;;;3.37;;
56517;SDS011;42419;48.760;2.322;2023-03-01T13:57:22;3.83;;;3.20;;
56517;SDS011;42419;48.760;2.322;2023-03-01T13:59:51;4.50;;;3.77;;
56517;SDS011;42419;48.760;2.322;2023-03-01T14:02:16;5.03;;;3.67;;
56517;SDS011;42419;48.760;2.322;2023-03-01T14:04:41;4.07;;;3.77;;
56517;SDS011;42419;48.760;2.322;2023-03-01T14:09:47;4.43;;;4.03;;
56517;SDS011;42419;48.760;2.322;2023-03-01T14:12:19;4.30;;;3.90;;
56517;SDS011;42419;48.760;2.322;2023-03-01T14:17:36;6.20;;;4.63;;
56517;SDS011;42419;48.760;2.322;2023-03-01T14:20:23;4.80;;;4.30;;
56517;SDS011;42419;48.760;2.322;2023-03-01T14:22:54;5.20;;;4.70;;
56517;SDS011;42419;48.760;2.322;2023-03-01T14:25:26;5.10;;;4.60;;
56517;SDS011;42419;48.760;2.322;2023-03-01T14:28:03;5.70;;;5.00;;
56517;SDS011;42419;48.760;2.322;2023-03-01T14:30:41;6.10;;;5.50;;
56517;SDS011;42419;48.760;2.322;2023-03-01T14:36:10;5.27;;;4.77;;
56517;SDS011;42419;48.760;2.322;2023-03-01T14:38:42;7.27;;;4.60;;
56517;SDS011;42419;48.760;2.322;2023-03-01T14:41:16;5.43;;;5.00;;
56517;SDS011;42419;48.760;2.322;2023-03-01T14:43:45;5.30;;;4.80;;
56517;SDS011;42419;48.760;2.322;2023-03-01T14:46:18;5.73;;;4.67;;
56517;SDS011;42419;48.760;2.322;2023-03-01T14:52:03;5.10;;;4.70;;
56517;SDS011;42419;48.760;2.322;2023-03-01T14:54:44;5.27;;;4.77;;
56517;SDS011;42419;48.760;2.322;2023-03-01T14:57:17;6.00;;;4.20;;
56517;SDS011;42419;48.760;2.322;2023-03-01T14:59:43;5.77;;;5.17;;
56517;SDS011;42419;48.760;2.322;2023-03-01T15:02:11;7.50;;;5.40;;
56517;SDS011;42419;48.760;2.322;2023-03-01T15:04:48;6.30;;;4.83;;
56517;SDS011;42419;48.760;2.322;2023-03-01T15:07:16;8.60;;;5.53;;
56517;SDS011;42419;48.760;2.322;2023-03-01T15:09:42;5.63;;;4.33;;
56517;SDS011;42419;48.760;2.322;2023-03-01T15:14:52;6.10;;;4.90;;
56517;SDS011;42419;48.760;2.322;2023-03-01T15:17:31;5.77;;;5.20;;
56517;SDS011;42419;48.760;2.322;2023-03-01T15:20:00;6.87;;;4.97;;
56517;SDS011;42419;48.760;2.322;2023-03-01T15:22:27;5.90;;;4.60;;
56517;SDS011;42419;48.760;2.322;2023-03-01T15:24:52;5.03;;;4.43;;
56517;SDS011;42419;48.760;2.322;2023-03-01T15:27:20;4.90;;;4.07;;
56517;SDS011;42419;48.760;2.322;2023-03-01T15:29:59;4.93;;;4.43;;
56517;SDS011;42419;48.760;2.322;2023-03-01T15:43:52;4.97;;;4.57;;
56517;SDS011;42419;48.760;2.322;2023-03-01T15:49:03;4.53;;;4.13;;
56517;SDS011;42419;48.760;2.322;2023-03-01T15:54:12;4.70;;;4.30;;
56517;SDS011;42419;48.760;2.322;2023-03-01T15:56:43;6.73;;;4.63;;
56517;SDS011;42419;48.760;2.322;2023-03-01T15:59:09;5.13;;;4.53;;
56517;SDS011;42419;48.760;2.322;2023-03-01T16:01:38;10.80;;;4.47;;
56517;SDS011;42419;48.760;2.322;2023-03-01T16:04:03;4.83;;;4.33;;
56517;SDS011;42419;48.760;2.322;2023-03-01T16:06:28;4.80;;;4.40;;
56517;SDS011;42419;48.760;2.322;2023-03-01T16:08:54;5.20;;;4.70;;
56517;SDS011;42419;48.760;2.322;2023-03-01T16:11:19;5.43;;;4.03;;
56517;SDS011;42419;48.760;2.322;2023-03-01T16:13:45;4.13;;;3.73;;
56517;SDS011;42419;48.760;2.322;2023-03-01T16:16:11;4.70;;;4.03;;
56517;SDS011;42419;48.760;2.322;2023-03-01T16:18:40;5.20;;;4.23;;
56517;SDS011;42419;48.760;2.322;2023-03-01T16:21:06;4.70;;;4.20;;
56517;SDS011;42419;48.760;2.322;2023-03-01T16:23:31;5.20;;;4.20;;
56517;SDS011;42419;48.760;2.322;2023-03-01T16:25:59;4.23;;;3.63;;
56517;SDS011;42419;48.760;2.322;2023-03-01T16:28:25;4.20;;;3.73;;
56517;SDS011;42419;48.760;2.322;2023-03-01T16:30:51;4.23;;;3.70;;
56517;SDS011;42419;48.760;2.322;2023-03-01T16:33:16;4.27;;;3.87;;
56517;SDS011;42419;48.760;2.322;2023-03-01T16:35:42;4.20;;;3.80;;
56517;SDS011;42419;48.760;2.322;2023-03-01T16:38:08;5.00;;;4.17;;
56517;SDS011;42419;48.760;2.322;2023-03-01T16:40:33;5.27;;;4.37;;
56517;SDS011;42419;48.760;2.322;2023-03-01T16:42:59;4.40;;;4.00;;
56517;SDS011;42419;48.760;2.322;2023-03-01T16:45:26;4.40;;;4.00;;
56517;SDS011;42419;48.760;2.322;2023-03-01T16:47:53;4.70;;;4.03;;
56517;SDS011;42419;48.760;2.322;2023-03-01T16:50:19;3.93;;;3.40;;
56517;SDS011;42419;48.760;2.322;2023-03-01T16:52:44;5.17;;;4.10;;
56517;SDS011;42419;48.760;2.322;2023-03-01T16:55:10;4.30;;;3.90;;
56517;SDS011;42419;48.760;2.322;2023-03-01T16:57:36;3.90;;;3.53;;
56517;SDS011;42419;48.760;2.322;2023-03-01T17:00:03;4.53;;;3.80;;
56517;SDS011;42419;48.760;2.322;2023-03-01T17:02:32;4.40;;;4.10;;
56517;SDS011;42419;48.760;2.322;2023-03-01T17:04:58;3.63;;;3.33;;